Latest Coastal Weather Observations for Moorabbin Airport

IDV60701

Issued at 2:55 pm EDT Tuesday 21 October 2014 (issued every 10 minutes, with the page automatically refreshed every 10 minutes)

About coastal observations | Map of coastal stations | Coastal observations for VIC | Marine services | Other Formats
Station Details ID: 086077 Name: MOORABBIN AIRPORT Lat: -37.98 Lon: 145.10 Height: 12.1 m
Data from the previous 72 hours. | See also: Recent months at Moorabbin Airport
Date/Time
EDT
Temp

°C
Wind Pressure Rain
since 9am
mm
Weather Cloud Vis
km
Sea
Height
m
Swell
Dir
 
Speed
knots
Gust
knots
hPa Trend Height
m
Period
s
Dir
21/02:30pm 25.3 SSE 13 20 1024.0 - 0.0 - - 10 - - - -
21/02:00pm 25.3 SSE 13 18 1024.5 - 0.0 - - 10 - - - -
21/01:30pm 25.0 SE 9 13 1025.0 - 0.0 - - 10 - - - -
21/01:00pm 23.8 ESE 8 11 1025.5 - 0.0 - - 10 - - - -
21/12:30pm 22.7 ESE 7 11 1025.7 - 0.0 - - 10 - - - -
21/12:00pm 22.3 N 5 10 1026.2 - 0.0 - - 10 - - - -
21/11:30am 20.3 E 6 11 1026.6 - 0.0 - - 10 - - - -
21/11:00am 19.0 E 5 10 1027.1 - 0.0 - - 10 - - - -
21/10:30am 18.0 SE 5 10 1027.2 - 0.0 - - 10 - - - -
21/10:00am 16.5 ESE 6 7 1027.6 - 0.0 - - 10 - - - -
21/09:30am 15.3 ESE 5 7 1027.6 - 0.0 - - 10 - - - -
21/09:00am 14.0 E 5 7 1027.7 - 0.0 - - 10 - - - -
21/08:30am 12.5 E 5 7 1027.6 - 0.0 - - 10 - - - -
21/08:00am 10.7 NE 5 6 1027.3 - 0.0 - - 10 - - - -
21/07:30am 9.1 NNE 4 6 1027.1 - 0.0 - - 10 - - - -
21/07:00am 7.3 NE 3 4 1026.9 - 0.0 - - 10 - - - -
21/06:30am 6.6 NNE 3 4 1026.6 - 0.0 - - 10 - - - -
21/06:00am 5.9 E 3 4 1026.3 - 0.0 - - 10 - - - -
21/05:30am 6.9 N 3 4 1026.2 - 0.0 - - 10 - - - -
21/05:00am 6.2 N 3 4 1026.2 - 0.0 - - 10 - - - -
21/04:30am 7.3 NNE 4 5 1026.3 - 0.0 - - 10 - - - -
21/04:00am 8.0 E 2 3 1026.1 - 0.0 - - 10 - - - -
21/03:30am 7.9 SE 2 4 1026.3 - 0.0 - - 10 - - - -
21/03:00am 8.1 SE 5 6 1026.4 - 0.0 - - 10 - - - -
21/02:30am 8.8 ESE 5 6 1026.5 - 0.0 - - 10 - - - -
21/02:00am 9.5 ESE 7 10 1026.7 - 0.0 - - 10 - - - -
21/01:30am 10.2 ESE 8 12 1026.9 - 0.0 - - 10 - - - -
21/01:00am 10.7 ESE 11 15 1027.1 - 0.0 - - 10 - - - -
21/12:30am 10.9 ESE 12 14 1027.2 - 0.0 - - 10 - - - -
21/12:00am 10.9 ESE 12 16 1027.4 - 0.0 - - 10 - - - -
 
Date/Time
EDT
Temp

°C
Wind Pressure Rain
since 9am
mm
Weather Cloud Vis
km
Sea
Height
m
Swell
Dir
 
Speed
knots
Gust
knots
hPa Trend Height
m
Period
s
Dir
20/11:30pm 11.3 ESE 12 18 1027.6 - 0.0 - - 10 - - - -
20/11:00pm 11.5 SE 14 19 1027.5 - 0.0 - - 10 - - - -
20/10:30pm 12.1 ESE 15 20 1027.6 - 0.0 - - 10 - - - -
20/10:00pm 12.3 ESE 15 23 1027.6 - 0.0 - - 10 - - - -
20/09:30pm 12.4 SE 15 21 1027.7 - 0.0 - - 10 - - - -
20/09:00pm 12.8 ESE 15 23 1027.6 - 0.0 - - 10 - - - -
20/08:30pm 13.5 SE 17 23 1027.3 - 0.0 - - 10 - - - -
20/08:21pm 14.0 SE 17 27 1027.3 - 0.0 - - 10 - - - -
20/08:00pm 14.5 ESE 19 24 1027.2 - 0.0 - - 10 - - - -
20/07:30pm 15.2 SE 19 27 1026.9 - 0.0 - - 10 - - - -
20/07:00pm 16.5 SE 18 24 1026.7 - 0.0 - - 10 - - - -
20/06:30pm 17.6 ESE 20 30 1026.8 - 0.0 - - 10 - - - -
20/06:28pm 17.8 ESE 19 30 1026.7 - 0.0 - - 10 - - - -
20/06:00pm 18.8 SE 17 23 1026.8 - 0.0 - - 10 - - - -
20/05:30pm 19.0 SE 18 23 1026.9 - 0.0 - - 10 - - - -
20/05:00pm 19.4 ESE 18 22 1026.9 - 0.0 - - 10 - - - -
20/04:30pm 19.6 SE 18 25 1027.0 - 0.0 - - 10 - - - -
20/04:00pm 19.4 SE 18 26 1027.1 - 0.0 - - 10 - - - -
20/03:30pm 19.8 SE 19 25 1027.4 - 0.0 - - 10 - - - -
20/03:00pm 19.4 SE 17 23 1027.7 - 0.0 - - 10 - - - -
20/02:30pm 19.3 SE 18 23 1027.9 - 0.0 - - 10 - - - -
20/02:00pm 18.9 SE 19 26 1028.3 - 0.0 - - 10 - - - -
20/01:30pm 19.5 SSE 16 21 1028.5 - 0.0 - - 10 - - - -
20/01:00pm 18.0 ESE 18 31 1028.6 - 0.0 - - 10 - - - -
20/12:51pm 18.3 ESE 17 31 1028.8 - 0.0 - - 10 - - - -
20/12:30pm 18.1 ESE 17 23 1029.2 - 0.0 - - 10 - - - -
20/12:17pm 17.1 SE 15 25 1029.4 - 0.0 - - 10 - - - -
20/12:00pm 17.4 SE 15 23 1029.6 - 0.0 - - 10 - - - -
20/11:30am 16.4 SE 17 25 1030.0 - 0.0 - - 10 - - - -
20/11:00am 14.9 SE 17 22 1030.3 - 0.0 - - 10 - - - -
20/10:30am 14.8 ESE 15 21 1030.2 - 0.0 - - 10 - - - -
20/10:00am 14.2 SE 16 21 1030.6 - 0.0 - - 10 - - - -
20/09:30am 13.4 SE 16 21 1030.7 - 0.0 - - 10 - - - -
20/09:00am 12.9 ESE 15 19 1030.6 - 0.0 - - 10 - - - -
20/08:30am 11.4 SE 13 18 1030.5 - 0.0 - - 10 - - - -
20/08:00am 10.3 SE 10 14 1030.4 - 0.0 - - 10 - - - -
20/07:30am 9.5 SE 9 12 1030.1 - 0.0 - - 10 - - - -
20/07:00am 8.4 SE 8 11 1030.0 - 0.0 - - 10 - - - -
20/06:30am 8.2 SE 8 11 1029.9 - 0.0 - - 10 - - - -
20/06:00am 8.6 SE 9 11 1029.6 - 0.0 - - 10 - - - -
20/05:30am 9.2 SE 9 12 1029.6 - 0.0 - - 10 - - - -
20/05:00am 9.4 SE 9 12 1029.2 - 0.0 - Partly cloudy 10 - - - -
20/04:30am 9.9 SE 9 11 1029.0 - 0.0 - Partly cloudy 10 - - - -
20/04:00am 10.6 SE 10 13 1029.2 - 0.0 - Partly cloudy 10 - - - -
20/03:30am 11.0 SE 10 14 1029.0 - 0.0 - Partly cloudy 10 - - - -
20/03:00am 12.0 SE 14 18 1029.0 - 0.0 - Cloudy 10 - - - -
20/02:30am 11.7 SE 8 11 1029.2 - 0.0 - Partly cloudy 10 - - - -
20/02:00am 11.5 SE 12 16 1029.2 - 0.0 - Partly cloudy 6 - - - -
20/01:30am 12.5 SSE 12 17 1029.0 - 0.0 - Partly cloudy 10 - - - -
20/01:00am 12.5 SSE 10 14 1029.2 - 0.0 - Partly cloudy 10 - - - -
20/12:30am 12.1 SSE 8 11 1029.3 - 0.0 - Partly cloudy 10 - - - -
20/12:00am 12.2 SSE 12 17 1029.1 - 0.0 - Cloudy 10 - - - -
 
Date/Time
EDT
Temp

°C
Wind Pressure Rain
since 9am
mm
Weather Cloud Vis
km
Sea
Height
m
Swell
Dir
 
Speed
knots
Gust
knots
hPa Trend Height
m
Period
s
Dir
19/11:30pm 12.5 S 10 15 1028.8 - 0.0 - Partly cloudy 10 - - - -
19/11:11pm 12.7 S 13 17 1028.7 - 0.0 - Partly cloudy 10 - - - -
19/11:00pm 12.9 S 15 21 1028.8 - 0.0 - Partly cloudy 10 - - - -
19/10:44pm 13.2 S 9 14 1028.5 - 0.0 - Partly cloudy 10 - - - -
19/10:30pm 13.3 SE 10 14 1027.9 - 0.0 - Partly cloudy 10 - - - -
19/10:00pm 14.3 SSW 11 15 1027.8 - 0.0 - Partly cloudy 10 - - - -
19/09:30pm 14.4 S 12 16 1027.4 - 0.0 - Partly cloudy 10 - - - -
19/09:00pm 14.6 SSW 10 15 1026.8 - 0.0 - Cloudy 10 - - - -
19/08:30pm 14.5 SSW 7 11 1026.3 - 0.0 - Partly cloudy 10 - - - -
19/08:00pm 14.4 S 9 14 1025.4 - 0.0 - Partly cloudy 10 - - - -
19/07:30pm 14.9 SSW 14 17 1024.8 - 0.0 - Partly cloudy 10 - - - -
19/07:00pm 15.0 SSW 11 16 1024.3 - 0.0 - - 10 - - - -
19/06:30pm 15.2 SSW 12 17 1023.5 - 0.0 - - 10 - - - -
19/06:00pm 15.4 SSW 15 22 1023.0 - 0.0 - Cloudy 10 - - - -
19/05:30pm 15.7 SSW 14 22 1021.9 - 0.0 - - 10 - - - -
19/05:00pm 15.9 SSW 19 29 1020.9 - 0.0 - - 10 - - - -
19/04:48pm 16.0 SSW 15 25 1020.5 - 0.0 - - 10 - - - -
19/04:30pm 15.9 SSW 13 19 1020.0 - 0.0 - - 10 - - - -
19/04:00pm 17.4 SSW 15 20 1019.7 - 0.0 - - 10 - - - -
19/03:30pm 17.6 SSW 16 23 1019.6 - 0.0 - - 10 - - - -
19/03:22pm 18.4 SSW 17 23 1019.4 - 0.0 - - 10 - - - -
19/03:12pm 23.6 W 16 24 1018.9 - 0.0 - - 10 - - - -
19/03:00pm 28.5 N 20 26 1018.1 - 0.0 - Mostly clear 10 - - - -
19/02:35pm 27.8 NNW 19 29 1018.2 - 0.0 - - 10 - - - -
19/02:30pm 28.5 NNW 20 26 1018.2 - 0.0 - - 10 - - - -
19/02:00pm 27.9 N 19 27 1018.7 - 0.0 - - 10 - - - -
19/01:44pm 27.3 N 21 31 1018.7 - 0.0 - - 10 - - - -
19/01:30pm 27.0 NNW 18 26 1018.9 - 0.0 - - 10 - - - -
19/01:09pm 26.9 N 21 31 1018.8 - 0.0 - - 10 - - - -
19/01:00pm 27.1 N 23 29 1018.9 - 0.0 - - 10 - - - -
19/12:30pm 27.1 NNW 22 34 1019.3 - 0.0 - - 10 - - - -
19/12:21pm 26.8 NNW 19 29 1019.2 - 0.0 - - 10 - - - -
19/12:00pm 26.5 NNW 22 28 1019.3 - 0.0 - Cloudy 10 - - - -
19/11:30am 27.2 N 19 28 1019.6 - 0.0 - - 10 - - - -
19/11:00am 26.0 N 19 32 1019.6 - 0.0 - - 10 - - - -
19/10:30am 25.5 N 25 31 1019.9 - 0.0 - - 10 - - - -
19/10:00am 25.2 N 21 31 1020.2 - 0.0 - - 10 - - - -
19/09:44am 24.4 N 20 30 1020.4 - 0.0 - - 10 - - - -
19/09:30am 24.5 N 21 29 1020.4 - 0.0 - - 10 - - - -
19/09:00am 23.2 N 17 21 1020.7 - 0.0 - Mostly cloudy 10 - - - -
19/08:30am 22.0 N 15 20 1020.7 - 0.0 - - 10 - - - -
19/08:00am 19.8 N 12 15 1020.8 - 0.0 - - 10 - - - -
19/07:30am 19.9 N 13 17 1020.3 - 0.0 - - 10 - - - -
19/07:00am 19.5 N 14 18 1019.8 - 0.0 - - 10 - - - -
19/06:30am 19.3 N 14 20 1019.5 - 0.0 - - 10 - - - -
19/06:00am 19.4 N 14 16 1019.3 - 0.0 - Cloudy 10 - - - -
19/05:30am 19.5 N 13 16 1019.4 - 0.0 - - 10 - - - -
19/05:00am 19.7 N 12 17 1019.5 - 0.0 - - 10 - - - -
19/04:30am 19.7 N 13 17 1019.6 - 0.0 - - 10 - - - -
19/04:00am 19.7 N 13 16 1019.7 - 0.0 - - 10 - - - -
19/03:30am 19.7 N 14 18 1019.8 - 0.0 - - 10 - - - -
19/03:00am 19.8 N 14 18 1020.0 - 0.0 - Cloudy 10 - - - -
19/02:30am 19.9 N 13 18 1020.3 - 0.0 - - 10 - - - -
19/02:00am 19.9 N 15 20 1020.2 - 0.0 - - 10 - - - -
19/01:30am 19.8 N 14 18 1020.5 - 0.0 - - 10 - - - -
19/01:00am 19.6 N 14 18 1020.7 - 0.0 - - 10 - - - -
19/12:30am 19.3 N 13 17 1020.8 - 0.0 - - 10 - - - -
19/12:00am 19.9 N 15 20 1021.0 - 0.0 - Mostly cloudy 10 - - - -
 
Date/Time
EDT
Temp

°C
Wind Pressure Rain
since 9am
mm
Weather Cloud Vis
km
Sea
Height
m
Swell
Dir
 
Speed
knots
Gust
knots
hPa Trend Height
m
Period
s
Dir
18/11:30pm 19.8 NNE 16 20 1021.2 - 0.0 - - 10 - - - -
18/11:00pm 20.0 NNE 14 18 1021.6 - 0.0 - - 10 - - - -
18/10:30pm 20.0 N 11 14 1022.0 - 0.0 - - 10 - - - -
18/10:00pm 19.2 N 11 15 1022.5 - 0.0 - - 10 - - - -
18/09:30pm 17.7 N 7 9 1022.8 - 0.0 - - 10 - - - -
18/09:00pm 18.9 N 8 11 1022.7 - 0.0 - Mostly clear 10 - - - -
18/08:30pm 21.0 N 10 13 1022.5 - 0.0 - - 10 - - - -
18/08:00pm 22.3 N 11 15 1022.5 - 0.0 - - 10 - - - -
18/07:30pm 22.6 N 12 16 1022.2 - 0.0 - - 10 - - - -
18/07:00pm 23.4 N 12 16 1022.1 - 0.0 - - 10 - - - -
18/06:30pm 23.6 N 13 17 1021.9 - 0.0 - - 10 - - - -
18/06:00pm 23.7 N 12 18 1021.8 - 0.0 - Mostly cloudy 10 - - - -
18/05:30pm 23.7 N 14 21 1021.3 - 0.0 - - 10 - - - -
18/05:00pm 23.9 N 13 19 1021.2 - 0.0 - - 10 - - - -
18/04:30pm 23.6 N 13 19 1021.2 - 0.0 - - 10 - - - -
18/04:00pm 22.6 N 15 20 1021.4 - 0.0 - Partly cloudy 10 - - - -
18/03:30pm 23.1 N 14 18 1022.0 - 0.0 - Partly cloudy 10 - - - -
18/03:00pm 22.6 N 13 20 1022.6 - 0.0 - Cloudy 10 - - - -

Other Formats:

Comma delimited format used in spreadsheet applications
http://www.bom.gov.au/fwo/IDV60701/IDV60701.94870.axf

JavaScript Object Notation format (JSON) in row-major order
http://www.bom.gov.au/fwo/IDV60701/IDV60701.94870.json